sensor_id;sensor_type;location;lat;lon;timestamp;P1;durP1;ratioP1;P2;durP2;ratioP2
21170;SDS011;10743;52.160;20.910;2023-05-20T00:00:51;235.85;;;72.78;;
21170;SDS011;10743;52.160;20.910;2023-05-20T00:03:18;224.85;;;68.13;;
21170;SDS011;10743;52.160;20.910;2023-05-20T00:05:46;223.07;;;68.82;;
21170;SDS011;10743;52.160;20.910;2023-05-20T00:08:13;232.17;;;63.87;;
21170;SDS011;10743;52.160;20.910;2023-05-20T00:10:40;222.17;;;62.83;;
21170;SDS011;10743;52.160;20.910;2023-05-20T00:13:07;223.77;;;62.67;;
21170;SDS011;10743;52.160;20.910;2023-05-20T00:15:34;223.18;;;62.40;;
21170;SDS011;10743;52.160;20.910;2023-05-20T00:18:02;232.45;;;70.63;;
21170;SDS011;10743;52.160;20.910;2023-05-20T00:20:30;225.35;;;67.40;;
21170;SDS011;10743;52.160;20.910;2023-05-20T00:22:58;223.10;;;69.00;;
21170;SDS011;10743;52.160;20.910;2023-05-20T00:25:25;225.65;;;68.82;;
21170;SDS011;10743;52.160;20.910;2023-05-20T00:27:52;220.23;;;69.25;;
21170;SDS011;10743;52.160;20.910;2023-05-20T00:30:20;224.82;;;64.85;;
21170;SDS011;10743;52.160;20.910;2023-05-20T00:32:47;223.63;;;65.82;;
21170;SDS011;10743;52.160;20.910;2023-05-20T00:35:14;225.05;;;67.35;;
21170;SDS011;10743;52.160;20.910;2023-05-20T00:37:42;228.52;;;70.45;;
21170;SDS011;10743;52.160;20.910;2023-05-20T00:40:09;222.80;;;61.30;;
21170;SDS011;10743;52.160;20.910;2023-05-20T00:42:40;220.47;;;61.60;;
21170;SDS011;10743;52.160;20.910;2023-05-20T00:45:07;218.63;;;61.57;;
21170;SDS011;10743;52.160;20.910;2023-05-20T00:47:34;220.33;;;62.03;;
21170;SDS011;10743;52.160;20.910;2023-05-20T00:50:05;214.77;;;60.70;;
21170;SDS011;10743;52.160;20.910;2023-05-20T00:52:35;220.10;;;60.97;;
21170;SDS011;10743;52.160;20.910;2023-05-20T00:55:02;214.43;;;60.57;;
21170;SDS011;10743;52.160;20.910;2023-05-20T00:57:30;220.70;;;61.77;;
21170;SDS011;10743;52.160;20.910;2023-05-20T00:59:57;219.00;;;61.17;;
21170;SDS011;10743;52.160;20.910;2023-05-20T01:02:25;217.13;;;61.20;;
21170;SDS011;10743;52.160;20.910;2023-05-20T01:04:52;221.17;;;62.00;;
21170;SDS011;10743;52.160;20.910;2023-05-20T01:07:22;218.37;;;61.90;;
21170;SDS011;10743;52.160;20.910;2023-05-20T01:09:52;219.20;;;62.40;;
21170;SDS011;10743;52.160;20.910;2023-05-20T01:12:27;219.03;;;62.03;;
21170;SDS011;10743;52.160;20.910;2023-05-20T01:15:04;219.53;;;61.93;;
21170;SDS011;10743;52.160;20.910;2023-05-20T01:17:42;221.80;;;62.80;;
21170;SDS011;10743;52.160;20.910;2023-05-20T01:20:12;215.63;;;61.43;;
21170;SDS011;10743;52.160;20.910;2023-05-20T01:22:46;218.47;;;61.90;;
21170;SDS011;10743;52.160;20.910;2023-05-20T01:25:21;216.73;;;60.77;;
21170;SDS011;10743;52.160;20.910;2023-05-20T01:27:50;218.87;;;61.53;;
21170;SDS011;10743;52.160;20.910;2023-05-20T01:30:18;220.03;;;61.00;;
21170;SDS011;10743;52.160;20.910;2023-05-20T01:32:48;218.00;;;60.97;;
21170;SDS011;10743;52.160;20.910;2023-05-20T01:35:20;216.30;;;60.53;;
21170;SDS011;10743;52.160;20.910;2023-05-20T01:37:49;213.77;;;60.37;;
21170;SDS011;10743;52.160;20.910;2023-05-20T01:40:18;216.50;;;60.43;;
21170;SDS011;10743;52.160;20.910;2023-05-20T01:42:46;215.47;;;59.60;;
21170;SDS011;10743;52.160;20.910;2023-05-20T01:45:18;217.60;;;60.13;;
21170;SDS011;10743;52.160;20.910;2023-05-20T01:47:46;215.43;;;60.67;;
21170;SDS011;10743;52.160;20.910;2023-05-20T01:50:14;220.63;;;60.80;;
21170;SDS011;10743;52.160;20.910;2023-05-20T01:52:42;216.27;;;60.27;;
21170;SDS011;10743;52.160;20.910;2023-05-20T01:55:09;218.07;;;60.47;;
21170;SDS011;10743;52.160;20.910;2023-05-20T01:57:36;220.43;;;60.87;;
21170;SDS011;10743;52.160;20.910;2023-05-20T02:00:04;217.13;;;60.37;;
21170;SDS011;10743;52.160;20.910;2023-05-20T02:02:38;217.03;;;60.23;;
21170;SDS011;10743;52.160;20.910;2023-05-20T02:05:08;215.23;;;60.37;;
21170;SDS011;10743;52.160;20.910;2023-05-20T02:07:36;216.90;;;60.60;;
21170;SDS011;10743;52.160;20.910;2023-05-20T02:10:03;221.07;;;60.53;;
21170;SDS011;10743;52.160;20.910;2023-05-20T02:12:31;218.07;;;60.47;;
21170;SDS011;10743;52.160;20.910;2023-05-20T02:14:58;218.20;;;60.30;;
21170;SDS011;10743;52.160;20.910;2023-05-20T02:17:25;217.10;;;60.40;;
21170;SDS011;10743;52.160;20.910;2023-05-20T02:19:52;213.23;;;59.67;;
21170;SDS011;10743;52.160;20.910;2023-05-20T02:22:19;216.70;;;60.17;;
21170;SDS011;10743;52.160;20.910;2023-05-20T02:24:46;214.93;;;60.03;;
21170;SDS011;10743;52.160;20.910;2023-05-20T02:27:14;215.73;;;59.33;;
21170;SDS011;10743;52.160;20.910;2023-05-20T02:29:42;218.60;;;60.10;;
21170;SDS011;10743;52.160;20.910;2023-05-20T02:32:10;215.67;;;59.77;;
21170;SDS011;10743;52.160;20.910;2023-05-20T02:34:37;214.30;;;59.20;;
21170;SDS011;10743;52.160;20.910;2023-05-20T02:37:05;219.07;;;59.47;;
21170;SDS011;10743;52.160;20.910;2023-05-20T02:39:32;216.50;;;59.50;;
21170;SDS011;10743;52.160;20.910;2023-05-20T02:41:59;215.30;;;59.60;;
21170;SDS011;10743;52.160;20.910;2023-05-20T02:44:26;214.27;;;59.97;;
21170;SDS011;10743;52.160;20.910;2023-05-20T02:46:54;213.03;;;59.20;;
21170;SDS011;10743;52.160;20.910;2023-05-20T02:49:21;219.33;;;59.63;;
21170;SDS011;10743;52.160;20.910;2023-05-20T02:51:50;215.73;;;59.37;;
21170;SDS011;10743;52.160;20.910;2023-05-20T02:54:17;218.83;;;60.23;;
21170;SDS011;10743;52.160;20.910;2023-05-20T02:56:44;220.03;;;59.73;;
21170;SDS011;10743;52.160;20.910;2023-05-20T02:59:11;211.07;;;58.90;;
21170;SDS011;10743;52.160;20.910;2023-05-20T03:01:39;217.53;;;59.17;;
21170;SDS011;10743;52.160;20.910;2023-05-20T03:04:06;220.57;;;60.37;;
21170;SDS011;10743;52.160;20.910;2023-05-20T03:06:35;212.37;;;58.97;;
21170;SDS011;10743;52.160;20.910;2023-05-20T03:09:03;224.63;;;68.90;;
21170;SDS011;10743;52.160;20.910;2023-05-20T03:11:31;219.30;;;59.63;;
21170;SDS011;10743;52.160;20.910;2023-05-20T03:13:58;224.50;;;61.73;;
21170;SDS011;10743;52.160;20.910;2023-05-20T03:16:25;215.20;;;59.17;;
21170;SDS011;10743;52.160;20.910;2023-05-20T03:18:53;212.87;;;59.20;;
21170;SDS011;10743;52.160;20.910;2023-05-20T03:21:21;219.20;;;60.27;;
21170;SDS011;10743;52.160;20.910;2023-05-20T03:23:49;217.10;;;59.23;;
21170;SDS011;10743;52.160;20.910;2023-05-20T03:26:17;211.83;;;59.00;;
21170;SDS011;10743;52.160;20.910;2023-05-20T03:28:45;217.43;;;59.43;;
21170;SDS011;10743;52.160;20.910;2023-05-20T03:31:12;213.50;;;59.37;;
21170;SDS011;10743;52.160;20.910;2023-05-20T03:33:39;213.07;;;58.67;;
21170;SDS011;10743;52.160;20.910;2023-05-20T03:36:06;214.77;;;59.13;;
21170;SDS011;10743;52.160;20.910;2023-05-20T03:38:34;215.23;;;59.10;;
21170;SDS011;10743;52.160;20.910;2023-05-20T03:41:01;222.35;;;60.28;;
21170;SDS011;10743;52.160;20.910;2023-05-20T03:43:28;225.80;;;73.28;;
21170;SDS011;10743;52.160;20.910;2023-05-20T03:45:55;222.80;;;67.18;;
21170;SDS011;10743;52.160;20.910;2023-05-20T03:48:22;223.70;;;70.75;;
21170;SDS011;10743;52.160;20.910;2023-05-20T03:50:49;228.20;;;72.15;;
21170;SDS011;10743;52.160;20.910;2023-05-20T03:53:16;223.20;;;70.18;;
21170;SDS011;10743;52.160;20.910;2023-05-20T03:55:45;231.93;;;73.30;;
21170;SDS011;10743;52.160;20.910;2023-05-20T03:58:13;213.17;;;59.60;;
21170;SDS011;10743;52.160;20.910;2023-05-20T04:00:41;223.23;;;65.97;;
21170;SDS011;10743;52.160;20.910;2023-05-20T04:03:08;216.52;;;60.13;;
21170;SDS011;10743;52.160;20.910;2023-05-20T04:05:36;220.60;;;67.88;;
21170;SDS011;10743;52.160;20.910;2023-05-20T04:08:10;225.15;;;70.80;;
21170;SDS011;10743;52.160;20.910;2023-05-20T04:10:42;231.38;;;85.40;;
21170;SDS011;10743;52.160;20.910;2023-05-20T04:13:10;222.25;;;64.25;;
21170;SDS011;10743;52.160;20.910;2023-05-20T04:15:38;226.95;;;73.65;;
21170;SDS011;10743;52.160;20.910;2023-05-20T04:18:07;224.68;;;70.15;;
21170;SDS011;10743;52.160;20.910;2023-05-20T04:20:34;228.30;;;78.18;;
21170;SDS011;10743;52.160;20.910;2023-05-20T04:23:01;219.68;;;62.80;;
21170;SDS011;10743;52.160;20.910;2023-05-20T04:25:28;219.60;;;63.78;;
21170;SDS011;10743;52.160;20.910;2023-05-20T04:27:56;224.57;;;72.35;;
21170;SDS011;10743;52.160;20.910;2023-05-20T04:30:23;228.95;;;71.82;;
21170;SDS011;10743;52.160;20.910;2023-05-20T04:32:50;233.45;;;77.82;;
21170;SDS011;10743;52.160;20.910;2023-05-20T04:35:19;226.73;;;67.25;;
21170;SDS011;10743;52.160;20.910;2023-05-20T04:37:48;229.63;;;65.05;;
21170;SDS011;10743;52.160;20.910;2023-05-20T04:40:18;219.20;;;63.75;;
21170;SDS011;10743;52.160;20.910;2023-05-20T04:42:46;230.48;;;75.95;;
21170;SDS011;10743;52.160;20.910;2023-05-20T04:45:14;218.07;;;63.80;;
21170;SDS011;10743;52.160;20.910;2023-05-20T04:47:41;215.10;;;60.60;;
21170;SDS011;10743;52.160;20.910;2023-05-20T04:50:09;223.60;;;60.42;;
21170;SDS011;10743;52.160;20.910;2023-05-20T04:52:39;219.90;;;60.92;;
21170;SDS011;10743;52.160;20.910;2023-05-20T04:55:11;223.50;;;65.38;;
21170;SDS011;10743;52.160;20.910;2023-05-20T04:57:39;216.90;;;61.35;;
21170;SDS011;10743;52.160;20.910;2023-05-20T05:00:11;223.10;;;66.90;;
21170;SDS011;10743;52.160;20.910;2023-05-20T05:02:39;220.25;;;62.03;;
21170;SDS011;10743;52.160;20.910;2023-05-20T05:05:06;222.02;;;67.30;;
21170;SDS011;10743;52.160;20.910;2023-05-20T05:07:34;228.82;;;60.30;;
21170;SDS011;10743;52.160;20.910;2023-05-20T05:10:02;219.15;;;59.58;;
21170;SDS011;10743;52.160;20.910;2023-05-20T05:12:30;226.88;;;60.55;;
21170;SDS011;10743;52.160;20.910;2023-05-20T05:14:58;219.02;;;59.45;;
21170;SDS011;10743;52.160;20.910;2023-05-20T05:17:26;252.18;;;95.68;;
21170;SDS011;10743;52.160;20.910;2023-05-20T05:19:55;216.23;;;59.00;;
21170;SDS011;10743;52.160;20.910;2023-05-20T05:22:24;227.25;;;60.90;;
21170;SDS011;10743;52.160;20.910;2023-05-20T05:24:51;218.65;;;61.33;;
21170;SDS011;10743;52.160;20.910;2023-05-20T05:27:21;223.13;;;74.45;;
21170;SDS011;10743;52.160;20.910;2023-05-20T05:29:48;229.63;;;68.60;;
21170;SDS011;10743;52.160;20.910;2023-05-20T05:32:16;228.65;;;70.35;;
21170;SDS011;10743;52.160;20.910;2023-05-20T05:34:43;220.25;;;60.25;;
21170;SDS011;10743;52.160;20.910;2023-05-20T05:37:10;226.65;;;69.40;;
21170;SDS011;10743;52.160;20.910;2023-05-20T05:39:38;221.43;;;60.17;;
21170;SDS011;10743;52.160;20.910;2023-05-20T05:42:05;218.48;;;59.75;;
21170;SDS011;10743;52.160;20.910;2023-05-20T05:44:33;223.43;;;59.58;;
21170;SDS011;10743;52.160;20.910;2023-05-20T05:47:01;225.32;;;61.08;;
21170;SDS011;10743;52.160;20.910;2023-05-20T05:49:29;222.48;;;60.45;;
21170;SDS011;10743;52.160;20.910;2023-05-20T05:51:56;225.98;;;59.88;;
21170;SDS011;10743;52.160;20.910;2023-05-20T05:54:23;219.43;;;60.22;;
21170;SDS011;10743;52.160;20.910;2023-05-20T05:56:51;222.75;;;68.18;;
21170;SDS011;10743;52.160;20.910;2023-05-20T05:59:19;239.63;;;90.28;;
21170;SDS011;10743;52.160;20.910;2023-05-20T06:01:47;222.18;;;59.97;;
21170;SDS011;10743;52.160;20.910;2023-05-20T06:04:15;219.10;;;59.53;;
21170;SDS011;10743;52.160;20.910;2023-05-20T06:06:42;220.57;;;60.15;;
21170;SDS011;10743;52.160;20.910;2023-05-20T06:09:09;221.57;;;60.75;;
21170;SDS011;10743;52.160;20.910;2023-05-20T06:11:36;228.82;;;61.75;;
21170;SDS011;10743;52.160;20.910;2023-05-20T06:14:03;221.77;;;60.78;;
21170;SDS011;10743;52.160;20.910;2023-05-20T06:16:31;218.65;;;60.30;;
21170;SDS011;10743;52.160;20.910;2023-05-20T06:18:59;233.20;;;61.05;;
21170;SDS011;10743;52.160;20.910;2023-05-20T06:21:30;224.77;;;60.95;;
21170;SDS011;10743;52.160;20.910;2023-05-20T06:23:58;227.27;;;61.28;;
21170;SDS011;10743;52.160;20.910;2023-05-20T06:26:25;225.50;;;61.17;;
21170;SDS011;10743;52.160;20.910;2023-05-20T06:28:52;231.98;;;61.60;;
21170;SDS011;10743;52.160;20.910;2023-05-20T06:31:20;231.48;;;61.38;;
21170;SDS011;10743;52.160;20.910;2023-05-20T06:33:50;230.98;;;61.35;;
21170;SDS011;10743;52.160;20.910;2023-05-20T06:36:17;224.13;;;61.15;;
21170;SDS011;10743;52.160;20.910;2023-05-20T06:38:45;226.63;;;61.45;;
21170;SDS011;10743;52.160;20.910;2023-05-20T06:41:14;233.20;;;62.55;;
21170;SDS011;10743;52.160;20.910;2023-05-20T06:43:41;221.88;;;60.85;;
21170;SDS011;10743;52.160;20.910;2023-05-20T06:46:17;226.38;;;61.10;;
21170;SDS011;10743;52.160;20.910;2023-05-20T06:48:50;225.95;;;61.42;;
21170;SDS011;10743;52.160;20.910;2023-05-20T06:51:17;225.95;;;61.88;;
21170;SDS011;10743;52.160;20.910;2023-05-20T06:53:47;232.70;;;62.35;;
21170;SDS011;10743;52.160;20.910;2023-05-20T06:56:14;234.93;;;62.20;;
21170;SDS011;10743;52.160;20.910;2023-05-20T06:58:42;232.15;;;62.45;;
21170;SDS011;10743;52.160;20.910;2023-05-20T07:01:09;232.77;;;62.70;;
21170;SDS011;10743;52.160;20.910;2023-05-20T07:03:38;226.35;;;61.95;;
21170;SDS011;10743;52.160;20.910;2023-05-20T07:06:05;251.20;;;71.18;;
21170;SDS011;10743;52.160;20.910;2023-05-20T07:08:33;240.13;;;63.78;;
21170;SDS011;10743;52.160;20.910;2023-05-20T07:11:00;234.30;;;62.78;;
21170;SDS011;10743;52.160;20.910;2023-05-20T07:13:28;238.88;;;63.70;;
21170;SDS011;10743;52.160;20.910;2023-05-20T07:15:57;248.50;;;65.07;;
21170;SDS011;10743;52.160;20.910;2023-05-20T07:18:25;243.25;;;64.30;;
21170;SDS011;10743;52.160;20.910;2023-05-20T07:20:55;244.02;;;64.47;;
21170;SDS011;10743;52.160;20.910;2023-05-20T07:23:33;242.63;;;64.40;;
21170;SDS011;10743;52.160;20.910;2023-05-20T07:26:00;194.02;;;74.50;;
21170;SDS011;10743;52.160;20.910;2023-05-20T07:28:27;251.52;;;88.47;;
21170;SDS011;10743;52.160;20.910;2023-05-20T07:30:55;165.20;;;60.08;;
21170;SDS011;10743;52.160;20.910;2023-05-20T07:33:26;194.20;;;67.63;;
21170;SDS011;10743;52.160;20.910;2023-05-20T07:35:53;172.23;;;60.75;;
21170;SDS011;10743;52.160;20.910;2023-05-20T07:38:21;207.95;;;69.03;;
21170;SDS011;10743;52.160;20.910;2023-05-20T07:40:56;200.10;;;79.88;;
21170;SDS011;10743;52.160;20.910;2023-05-20T07:43:23;198.13;;;79.25;;
21170;SDS011;10743;52.160;20.910;2023-05-20T07:45:50;206.57;;;101.68;;
21170;SDS011;10743;52.160;20.910;2023-05-20T07:48:17;233.57;;;70.97;;
21170;SDS011;10743;52.160;20.910;2023-05-20T07:50:44;195.65;;;71.75;;
21170;SDS011;10743;52.160;20.910;2023-05-20T07:53:12;214.13;;;90.90;;
21170;SDS011;10743;52.160;20.910;2023-05-20T07:55:40;249.55;;;67.07;;
21170;SDS011;10743;52.160;20.910;2023-05-20T07:58:07;237.43;;;185.23;;
21170;SDS011;10743;52.160;20.910;2023-05-20T08:00:34;268.88;;;198.27;;
21170;SDS011;10743;52.160;20.910;2023-05-20T08:03:05;235.85;;;137.48;;
21170;SDS011;10743;52.160;20.910;2023-05-20T08:06:03;224.65;;;120.20;;
21170;SDS011;10743;52.160;20.910;2023-05-20T08:08:30;231.32;;;136.02;;
21170;SDS011;10743;52.160;20.910;2023-05-20T08:11:04;226.82;;;134.30;;
21170;SDS011;10743;52.160;20.910;2023-05-20T08:13:31;241.38;;;148.07;;
21170;SDS011;10743;52.160;20.910;2023-05-20T08:16:00;237.88;;;157.63;;
21170;SDS011;10743;52.160;20.910;2023-05-20T08:18:29;239.20;;;135.95;;
21170;SDS011;10743;52.160;20.910;2023-05-20T08:20:58;220.02;;;124.35;;
21170;SDS011;10743;52.160;20.910;2023-05-20T08:23:25;281.73;;;149.77;;
21170;SDS011;10743;52.160;20.910;2023-05-20T08:25:52;238.15;;;140.65;;
21170;SDS011;10743;52.160;20.910;2023-05-20T08:28:22;223.80;;;121.55;;
21170;SDS011;10743;52.160;20.910;2023-05-20T08:30:49;212.23;;;100.38;;
21170;SDS011;10743;52.160;20.910;2023-05-20T08:33:17;213.10;;;114.40;;
21170;SDS011;10743;52.160;20.910;2023-05-20T08:35:44;230.38;;;81.57;;
21170;SDS011;10743;52.160;20.910;2023-05-20T08:38:11;117.40;;;81.53;;
21170;SDS011;10743;52.160;20.910;2023-05-20T08:40:39;61.45;;;53.30;;
21170;SDS011;10743;52.160;20.910;2023-05-20T08:43:07;181.10;;;113.55;;
21170;SDS011;10743;52.160;20.910;2023-05-20T08:45:36;217.32;;;107.38;;
21170;SDS011;10743;52.160;20.910;2023-05-20T08:48:09;218.45;;;148.60;;
21170;SDS011;10743;52.160;20.910;2023-05-20T08:50:37;202.23;;;141.93;;
21170;SDS011;10743;52.160;20.910;2023-05-20T08:53:05;199.23;;;119.22;;
21170;SDS011;10743;52.160;20.910;2023-05-20T08:55:53;207.02;;;132.77;;
21170;SDS011;10743;52.160;20.910;2023-05-20T08:58:26;184.73;;;107.60;;
21170;SDS011;10743;52.160;20.910;2023-05-20T09:00:58;225.38;;;149.13;;
21170;SDS011;10743;52.160;20.910;2023-05-20T09:03:25;198.27;;;117.50;;
21170;SDS011;10743;52.160;20.910;2023-05-20T09:05:52;187.82;;;126.55;;
21170;SDS011;10743;52.160;20.910;2023-05-20T09:08:23;182.32;;;117.55;;
21170;SDS011;10743;52.160;20.910;2023-05-20T09:10:54;155.43;;;94.72;;
21170;SDS011;10743;52.160;20.910;2023-05-20T09:13:22;166.00;;;120.57;;
21170;SDS011;10743;52.160;20.910;2023-05-20T09:15:49;175.43;;;111.68;;
21170;SDS011;10743;52.160;20.910;2023-05-20T09:18:17;148.95;;;123.43;;
21170;SDS011;10743;52.160;20.910;2023-05-20T09:20:45;45.13;;;20.02;;
21170;SDS011;10743;52.160;20.910;2023-05-20T09:23:14;69.93;;;42.78;;
21170;SDS011;10743;52.160;20.910;2023-05-20T09:25:41;178.63;;;122.63;;
21170;SDS011;10743;52.160;20.910;2023-05-20T09:28:08;215.85;;;79.03;;
21170;SDS011;10743;52.160;20.910;2023-05-20T09:30:37;55.53;;;30.10;;
21170;SDS011;10743;52.160;20.910;2023-05-20T09:33:04;48.95;;;31.27;;
21170;SDS011;10743;52.160;20.910;2023-05-20T09:35:33;51.63;;;35.22;;
21170;SDS011;10743;52.160;20.910;2023-05-20T09:38:04;52.92;;;36.45;;
21170;SDS011;10743;52.160;20.910;2023-05-20T09:40:35;39.42;;;18.90;;
21170;SDS011;10743;52.160;20.910;2023-05-20T09:43:06;38.17;;;27.35;;
21170;SDS011;10743;52.160;20.910;2023-05-20T09:45:34;59.22;;;36.85;;
21170;SDS011;10743;52.160;20.910;2023-05-20T09:48:02;74.57;;;48.03;;
21170;SDS011;10743;52.160;20.910;2023-05-20T09:50:34;62.28;;;49.65;;
21170;SDS011;10743;52.160;20.910;2023-05-20T09:53:02;35.33;;;20.25;;
21170;SDS011;10743;52.160;20.910;2023-05-20T09:55:30;61.35;;;40.13;;
21170;SDS011;10743;52.160;20.910;2023-05-20T09:58:00;99.13;;;62.92;;
21170;SDS011;10743;52.160;20.910;2023-05-20T10:00:28;91.78;;;56.17;;
21170;SDS011;10743;52.160;20.910;2023-05-20T10:02:56;43.15;;;27.13;;
21170;SDS011;10743;52.160;20.910;2023-05-20T10:05:28;32.88;;;8.20;;
21170;SDS011;10743;52.160;20.910;2023-05-20T10:11:27;22.52;;;6.75;;
21170;SDS011;10743;52.160;20.910;2023-05-20T10:17:19;28.52;;;7.80;;
21170;SDS011;10743;52.160;20.910;2023-05-20T10:20:15;78.40;;;66.75;;
21170;SDS011;10743;52.160;20.910;2023-05-20T10:22:42;31.85;;;8.98;;
21170;SDS011;10743;52.160;20.910;2023-05-20T10:25:25;55.63;;;38.45;;
21170;SDS011;10743;52.160;20.910;2023-05-20T10:28:03;39.15;;;17.40;;
21170;SDS011;10743;52.160;20.910;2023-05-20T10:30:34;59.72;;;44.42;;
21170;SDS011;10743;52.160;20.910;2023-05-20T10:33:02;46.22;;;28.42;;
21170;SDS011;10743;52.160;20.910;2023-05-20T10:35:31;29.73;;;17.90;;
21170;SDS011;10743;52.160;20.910;2023-05-20T10:38:06;29.33;;;10.75;;
21170;SDS011;10743;52.160;20.910;2023-05-20T10:40:36;28.48;;;9.20;;
21170;SDS011;10743;52.160;20.910;2023-05-20T10:43:10;30.00;;;8.63;;
21170;SDS011;10743;52.160;20.910;2023-05-20T10:45:49;32.88;;;15.65;;
21170;SDS011;10743;52.160;20.910;2023-05-20T10:50:55;32.15;;;15.52;;
21170;SDS011;10743;52.160;20.910;2023-05-20T10:53:26;43.42;;;26.02;;
21170;SDS011;10743;52.160;20.910;2023-05-20T10:56:00;26.88;;;14.43;;
21170;SDS011;10743;52.160;20.910;2023-05-20T10:58:34;42.53;;;29.17;;
21170;SDS011;10743;52.160;20.910;2023-05-20T11:01:04;66.15;;;37.03;;
21170;SDS011;10743;52.160;20.910;2023-05-20T11:03:31;32.15;;;16.70;;
21170;SDS011;10743;52.160;20.910;2023-05-20T11:06:00;41.88;;;26.67;;
21170;SDS011;10743;52.160;20.910;2023-05-20T11:08:36;30.60;;;13.15;;
21170;SDS011;10743;52.160;20.910;2023-05-20T11:11:03;23.98;;;6.75;;
21170;SDS011;10743;52.160;20.910;2023-05-20T11:13:31;36.95;;;16.98;;
21170;SDS011;10743;52.160;20.910;2023-05-20T11:15:59;40.80;;;16.52;;
21170;SDS011;10743;52.160;20.910;2023-05-20T11:18:27;25.55;;;7.70;;
21170;SDS011;10743;52.160;20.910;2023-05-20T11:20:57;35.22;;;16.52;;
21170;SDS011;10743;52.160;20.910;2023-05-20T11:23:26;32.80;;;15.77;;
21170;SDS011;10743;52.160;20.910;2023-05-20T11:25:55;33.08;;;8.25;;
21170;SDS011;10743;52.160;20.910;2023-05-20T11:28:23;19.95;;;7.57;;
21170;SDS011;10743;52.160;20.910;2023-05-20T11:30:50;27.80;;;7.18;;
21170;SDS011;10743;52.160;20.910;2023-05-20T11:33:18;32.72;;;28.55;;
21170;SDS011;10743;52.160;20.910;2023-05-20T11:35:46;40.15;;;20.67;;
21170;SDS011;10743;52.160;20.910;2023-05-20T11:38:16;37.67;;;16.58;;
21170;SDS011;10743;52.160;20.910;2023-05-20T11:40:45;21.88;;;12.23;;
21170;SDS011;10743;52.160;20.910;2023-05-20T11:43:22;25.23;;;11.05;;
21170;SDS011;10743;52.160;20.910;2023-05-20T11:45:53;20.63;;;11.95;;
21170;SDS011;10743;52.160;20.910;2023-05-20T11:48:25;16.80;;;8.68;;
21170;SDS011;10743;52.160;20.910;2023-05-20T11:50:55;17.15;;;8.32;;
21170;SDS011;10743;52.160;20.910;2023-05-20T11:53:22;39.60;;;8.07;;
21170;SDS011;10743;52.160;20.910;2023-05-20T11:55:54;25.83;;;10.15;;
21170;SDS011;10743;52.160;20.910;2023-05-20T11:58:25;31.83;;;7.80;;
21170;SDS011;10743;52.160;20.910;2023-05-20T12:00:55;26.83;;;8.52;;
21170;SDS011;10743;52.160;20.910;2023-05-20T12:03:42;23.67;;;6.53;;
21170;SDS011;10743;52.160;20.910;2023-05-20T12:06:10;25.58;;;7.72;;
21170;SDS011;10743;52.160;20.910;2023-05-20T12:08:38;22.17;;;8.52;;
21170;SDS011;10743;52.160;20.910;2023-05-20T12:11:06;25.77;;;7.75;;
21170;SDS011;10743;52.160;20.910;2023-05-20T12:13:33;24.45;;;6.85;;
21170;SDS011;10743;52.160;20.910;2023-05-20T12:16:01;21.38;;;7.32;;
21170;SDS011;10743;52.160;20.910;2023-05-20T12:18:29;25.50;;;8.43;;
21170;SDS011;10743;52.160;20.910;2023-05-20T12:20:58;27.40;;;8.02;;
21170;SDS011;10743;52.160;20.910;2023-05-20T12:23:26;26.83;;;7.28;;
21170;SDS011;10743;52.160;20.910;2023-05-20T12:25:55;24.30;;;7.68;;
21170;SDS011;10743;52.160;20.910;2023-05-20T12:28:22;29.02;;;9.45;;
21170;SDS011;10743;52.160;20.910;2023-05-20T12:30:50;28.67;;;11.45;;
21170;SDS011;10743;52.160;20.910;2023-05-20T12:33:17;27.80;;;8.48;;
21170;SDS011;10743;52.160;20.910;2023-05-20T12:35:45;24.08;;;6.60;;
21170;SDS011;10743;52.160;20.910;2023-05-20T12:38:12;26.30;;;6.97;;
21170;SDS011;10743;52.160;20.910;2023-05-20T12:40:40;25.05;;;7.05;;
21170;SDS011;10743;52.160;20.910;2023-05-20T12:43:07;23.58;;;10.38;;
21170;SDS011;10743;52.160;20.910;2023-05-20T12:45:34;25.30;;;6.85;;
21170;SDS011;10743;52.160;20.910;2023-05-20T12:48:01;23.48;;;6.90;;
21170;SDS011;10743;52.160;20.910;2023-05-20T12:50:28;25.70;;;6.97;;
21170;SDS011;10743;52.160;20.910;2023-05-20T12:52:56;34.00;;;7.85;;
21170;SDS011;10743;52.160;20.910;2023-05-20T12:55:23;19.80;;;6.47;;
21170;SDS011;10743;52.160;20.910;2023-05-20T12:57:50;22.23;;;13.07;;
21170;SDS011;10743;52.160;20.910;2023-05-20T13:00:17;19.92;;;9.27;;
21170;SDS011;10743;52.160;20.910;2023-05-20T13:02:44;19.70;;;7.68;;
21170;SDS011;10743;52.160;20.910;2023-05-20T13:05:12;24.15;;;7.90;;
21170;SDS011;10743;52.160;20.910;2023-05-20T13:07:39;41.67;;;20.60;;
21170;SDS011;10743;52.160;20.910;2023-05-20T13:10:06;37.42;;;9.25;;
21170;SDS011;10743;52.160;20.910;2023-05-20T13:12:36;25.83;;;8.40;;
21170;SDS011;10743;52.160;20.910;2023-05-20T13:15:03;34.42;;;14.60;;
21170;SDS011;10743;52.160;20.910;2023-05-20T13:17:31;39.17;;;11.02;;
21170;SDS011;10743;52.160;20.910;2023-05-20T13:19:58;25.55;;;6.80;;
21170;SDS011;10743;52.160;20.910;2023-05-20T13:22:25;26.23;;;7.28;;
21170;SDS011;10743;52.160;20.910;2023-05-20T13:24:52;27.98;;;7.22;;
21170;SDS011;10743;52.160;20.910;2023-05-20T13:27:19;28.48;;;6.97;;
21170;SDS011;10743;52.160;20.910;2023-05-20T13:29:46;29.45;;;7.55;;
21170;SDS011;10743;52.160;20.910;2023-05-20T13:32:13;22.13;;;7.55;;
21170;SDS011;10743;52.160;20.910;2023-05-20T13:34:40;19.13;;;7.53;;
21170;SDS011;10743;52.160;20.910;2023-05-20T13:37:08;23.05;;;7.75;;
21170;SDS011;10743;52.160;20.910;2023-05-20T13:39:35;24.38;;;7.35;;
21170;SDS011;10743;52.160;20.910;2023-05-20T13:42:02;20.90;;;6.53;;
21170;SDS011;10743;52.160;20.910;2023-05-20T13:44:30;19.88;;;6.38;;
21170;SDS011;10743;52.160;20.910;2023-05-20T13:46:58;34.97;;;12.52;;
21170;SDS011;10743;52.160;20.910;2023-05-20T13:49:25;24.13;;;8.50;;
21170;SDS011;10743;52.160;20.910;2023-05-20T13:51:52;103.40;;;82.10;;
21170;SDS011;10743;52.160;20.910;2023-05-20T13:54:20;85.85;;;57.92;;
21170;SDS011;10743;52.160;20.910;2023-05-20T13:56:47;85.35;;;58.65;;
21170;SDS011;10743;52.160;20.910;2023-05-20T13:59:14;96.82;;;73.43;;
21170;SDS011;10743;52.160;20.910;2023-05-20T14:01:41;121.70;;;91.85;;
21170;SDS011;10743;52.160;20.910;2023-05-20T14:04:11;134.10;;;82.15;;
21170;SDS011;10743;52.160;20.910;2023-05-20T14:06:38;124.53;;;92.03;;
21170;SDS011;10743;52.160;20.910;2023-05-20T14:09:05;153.75;;;98.07;;
21170;SDS011;10743;52.160;20.910;2023-05-20T14:11:34;155.90;;;100.40;;
21170;SDS011;10743;52.160;20.910;2023-05-20T14:14:01;138.20;;;76.30;;
21170;SDS011;10743;52.160;20.910;2023-05-20T14:16:28;146.98;;;111.65;;
21170;SDS011;10743;52.160;20.910;2023-05-20T14:18:56;145.35;;;83.05;;